Time;durP1;ratioP1;P1;durP2;ratioP2;P2;SDS_P1;SDS_P2;PMS_P1;PMS_P2;Temp;Humidity;BMP_temperature;BMP_pressure;BME280_temperature;BME280_humidity;BME280_pressure;Samples;Min_cycle;Max_cycle;Signal;HPM_P1;HPM_P2
2023/04/14 00:00:21;;;;;;;11.17;3.13;;;4.90;99.90;;;;;;5026292;28;20381;-76
2023/04/14 00:02:46;;;;;;;12.35;2.88;;;5.00;99.90;;;;;;5026222;28;20411;-75
2023/04/14 00:05:12;;;;;;;14.15;4.20;;;4.90;99.90;;;;;;5026397;28;20395;-76
2023/04/14 00:07:37;;;;;;;12.52;3.13;;;5.00;99.90;;;;;;5024824;28;20905;-75
2023/04/14 00:10:03;;;;;;;11.60;3.15;;;4.90;99.90;;;;;;5026377;28;20554;-76
2023/04/14 00:12:29;;;;;;;11.57;3.38;;;4.80;99.90;;;;;;5026263;28;20410;-76
2023/04/14 00:14:55;;;;;;;11.20;3.05;;;4.90;99.90;;;;;;5007669;28;20438;-76
2023/04/14 00:17:20;;;;;;;12.75;3.20;;;4.80;99.90;;;;;;5008477;28;20407;-76
2023/04/14 00:19:46;;;;;;;11.60;3.70;;;4.80;99.90;;;;;;5025921;28;20403;-75
2023/04/14 00:22:12;;;;;;;11.98;3.22;;;4.80;99.90;;;;;;5024691;28;20870;-77
2023/04/14 00:24:42;;;;;;;8.02;3.15;;;4.80;99.90;;;;;;5025649;28;20415;-78
2023/04/14 00:27:08;;;;;;;10.77;3.60;;;4.80;99.90;;;;;;5007786;28;20415;-76
2023/04/14 00:29:34;;;;;;;16.58;4.35;;;4.70;99.90;;;;;;5026117;28;20750;-77
2023/04/14 00:31:59;;;;;;;11.53;3.67;;;4.70;99.90;;;;;;5025224;28;20407;-76
2023/04/14 00:34:25;;;;;;;11.67;3.30;;;4.70;99.90;;;;;;5025944;28;20857;-77
2023/04/14 00:36:50;;;;;;;10.75;3.25;;;4.70;99.90;;;;;;5024254;28;20881;-76
2023/04/14 00:39:16;;;;;;;13.15;4.05;;;4.60;99.90;;;;;;5025661;28;20418;-75
2023/04/14 00:41:42;;;;;;;12.45;3.17;;;4.60;99.90;;;;;;5025023;28;20494;-76
2023/04/14 00:44:08;;;;;;;12.18;3.60;;;4.50;99.90;;;;;;5025841;28;20490;-77
2023/04/14 00:46:35;;;;;;;10.00;3.35;;;4.50;99.90;;;;;;5007744;28;20434;-76
2023/04/14 00:49:01;;;;;;;11.57;3.08;;;4.50;99.90;;;;;;5025656;28;20483;-76
2023/04/14 00:51:27;;;;;;;9.60;2.80;;;4.60;99.90;;;;;;5024285;28;20886;-77
2023/04/14 00:53:54;;;;;;;9.23;3.13;;;4.60;99.90;;;;;;5024933;28;20427;-77
2023/04/14 00:56:21;;;;;;;11.03;2.70;;;4.50;99.90;;;;;;5008072;28;20417;-76
2023/04/14 00:58:47;;;;;;;12.10;3.03;;;4.50;99.90;;;;;;5025175;28;20449;-76
2023/04/14 01:01:13;;;;;;;9.48;2.85;;;4.50;99.90;;;;;;5025096;28;20403;-76
2023/04/14 01:03:38;;;;;;;15.95;3.40;;;4.50;99.90;;;;;;5024995;28;20418;-76
2023/04/14 01:06:04;;;;;;;13.23;3.90;;;4.50;99.90;;;;;;5025418;28;20407;-77
2023/04/14 01:08:30;;;;;;;12.63;3.10;;;4.50;99.90;;;;;;5024289;28;20422;-76
2023/04/14 01:11:17;;;;;;;8.27;3.63;;;4.50;99.90;;;;;;5006930;28;21132;-76
2023/04/14 01:13:50;;;;;;;11.48;3.15;;;4.50;99.90;;;;;;5024840;28;20514;-75
2023/04/14 01:16:44;;;;;;;10.02;3.20;;;4.40;99.90;;;;;;5025255;28;20404;-77
2023/04/14 01:19:41;;;;;;;12.77;2.95;;;4.40;99.90;;;;;;5024852;28;20415;-76
2023/04/14 01:22:09;;;;;;;9.48;3.05;;;4.40;99.90;;;;;;5006119;28;20407;-77
2023/04/14 01:24:38;;;;;;;10.50;3.28;;;4.40;99.90;;;;;;5024911;28;20422;-76
2023/04/14 01:27:26;;;;;;;10.00;2.75;;;4.40;99.90;;;;;;5024939;28;20809;-77
2023/04/14 01:30:01;;;;;;;10.10;2.92;;;4.30;99.90;;;;;;5008624;28;20446;-76
2023/04/14 01:32:30;;;;;;;9.83;4.00;;;4.20;99.90;;;;;;5024587;28;20473;-76
2023/04/14 01:34:58;;;;;;;10.65;3.55;;;4.20;99.90;;;;;;5006888;28;20402;-75
2023/04/14 01:37:30;;;;;;;10.45;3.33;;;4.20;99.90;;;;;;5023650;28;20506;-75
2023/04/14 01:40:02;;;;;;;10.73;3.53;;;4.20;99.90;;;;;;5024034;28;20418;-77
2023/04/14 01:42:34;;;;;;;9.27;3.20;;;4.10;99.90;;;;;;5023992;28;20452;-77
2023/04/14 01:45:08;;;;;;;9.15;3.10;;;4.10;99.90;;;;;;5024043;28;20818;-77
2023/04/14 01:47:34;;;;;;;10.77;3.40;;;4.10;99.90;;;;;;5024955;28;20427;-75
2023/04/14 01:50:02;;;;;;;11.43;3.50;;;4.10;99.90;;;;;;5024361;28;20511;-75
2023/04/14 01:52:29;;;;;;;10.20;3.00;;;4.10;99.90;;;;;;5023445;28;20417;-76
2023/04/14 01:54:57;;;;;;;8.43;3.38;;;4.00;99.90;;;;;;5024295;28;20802;-75
2023/04/14 01:57:25;;;;;;;12.45;3.28;;;4.00;99.90;;;;;;5024818;28;20417;-76
2023/04/14 01:59:53;;;;;;;9.27;2.65;;;4.00;99.90;;;;;;5023998;28;20517;-77
2023/04/14 02:02:21;;;;;;;9.10;3.25;;;4.00;99.90;;;;;;5024218;28;20426;-77
2023/04/14 02:04:48;;;;;;;9.73;3.40;;;4.00;99.90;;;;;;5023838;28;20403;-76
2023/04/14 02:07:16;;;;;;;7.47;2.88;;;4.00;99.90;;;;;;5023379;28;20415;-76
2023/04/14 02:09:44;;;;;;;7.38;2.60;;;3.90;99.90;;;;;;5023957;28;20458;-77
2023/04/14 02:12:11;;;;;;;8.95;3.30;;;4.00;99.90;;;;;;5024026;28;20770;-77
2023/04/14 02:14:40;;;;;;;9.75;3.20;;;3.90;99.90;;;;;;5023713;28;20449;-77
2023/04/14 02:17:08;;;;;;;8.10;3.17;;;4.00;99.90;;;;;;5024115;28;20410;-77
2023/04/14 02:19:35;;;;;;;10.57;3.13;;;3.90;99.90;;;;;;5024217;28;20771;-76
2023/04/14 02:22:02;;;;;;;10.02;3.88;;;3.90;99.90;;;;;;5005810;28;20414;-76
2023/04/14 02:24:28;;;;;;;8.35;2.90;;;3.90;99.90;;;;;;5005919;28;20415;-77
2023/04/14 02:27:17;;;;;;;11.50;3.15;;;4.00;99.90;;;;;;5023930;28;20410;-75
2023/04/14 02:29:51;;;;;;;10.23;2.77;;;3.90;99.90;;;;;;5023786;28;20925;-74
2023/04/14 02:32:26;;;;;;;9.77;3.45;;;4.00;99.90;;;;;;5024642;28;20581;-77
2023/04/14 02:34:57;;;;;;;10.15;3.80;;;4.10;99.90;;;;;;5023503;28;20917;-77
2023/04/14 02:37:32;;;;;;;9.60;2.92;;;4.00;99.90;;;;;;5023079;28;20399;-78
2023/04/14 02:40:25;;;;;;;9.02;2.65;;;4.10;99.90;;;;;;4989766;28;21159;-75
2023/04/14 02:43:03;;;;;;;11.13;3.38;;;4.00;99.90;;;;;;5005897;28;20433;-78
2023/04/14 02:45:31;;;;;;;6.25;2.50;;;4.00;99.90;;;;;;5024178;28;20410;-76
2023/04/14 02:48:02;;;;;;;14.10;3.00;;;4.10;99.90;;;;;;5023607;28;20430;-76
2023/04/14 02:50:29;;;;;;;13.48;3.58;;;4.00;99.90;;;;;;5023686;28;20416;-75
2023/04/14 02:52:56;;;;;;;9.77;3.53;;;4.00;99.90;;;;;;5005011;28;20513;-76
2023/04/14 02:55:23;;;;;;;6.32;3.33;;;3.90;99.90;;;;;;5025616;28;20406;-75
2023/04/14 02:57:50;;;;;;;8.15;2.20;;;4.10;99.90;;;;;;5009899;28;20410;-77
2023/04/14 03:00:16;;;;;;;13.20;4.00;;;4.00;99.90;;;;;;5027409;28;20501;-76
2023/04/14 03:02:43;;;;;;;8.48;2.63;;;3.90;99.90;;;;;;5027237;28;20857;-76
2023/04/14 03:05:09;;;;;;;10.50;3.50;;;3.90;99.90;;;;;;5027634;28;20788;-76
2023/04/14 03:07:36;;;;;;;10.10;2.67;;;4.00;99.90;;;;;;5009022;28;20430;-76
2023/04/14 03:10:03;;;;;;;13.37;3.93;;;3.90;99.90;;;;;;5028101;28;20406;-77
2023/04/14 03:12:29;;;;;;;11.20;2.87;;;3.90;99.90;;;;;;5027554;28;20761;-75
2023/04/14 03:14:55;;;;;;;7.80;3.05;;;3.90;99.90;;;;;;5006000;28;20470;-76
2023/04/14 03:17:21;;;;;;;11.02;2.78;;;3.90;99.90;;;;;;5006463;28;20420;-76
2023/04/14 03:19:49;;;;;;;12.13;3.47;;;3.80;99.90;;;;;;5007151;28;20412;-74
2023/04/14 03:22:19;;;;;;;8.80;3.45;;;3.80;99.90;;;;;;5006418;28;20409;-76
2023/04/14 03:24:45;;;;;;;8.57;3.80;;;3.70;99.90;;;;;;5007236;28;21368;-76
2023/04/14 03:27:15;;;;;;;9.57;2.50;;;3.80;99.90;;;;;;5007004;28;20405;-77
2023/04/14 03:29:47;;;;;;;9.55;3.00;;;3.80;99.90;;;;;;5005685;28;20767;-76
2023/04/14 03:32:15;;;;;;;12.07;3.05;;;3.70;99.90;;;;;;5006744;28;20419;-77
2023/04/14 03:34:42;;;;;;;10.10;2.65;;;3.90;99.90;;;;;;4988623;28;20568;-76
2023/04/14 03:37:08;;;;;;;11.27;3.72;;;3.80;99.90;;;;;;5006138;28;20492;-77
2023/04/14 03:39:37;;;;;;;11.63;3.55;;;3.90;99.90;;;;;;5006281;28;21005;-76
2023/04/14 03:42:06;;;;;;;9.70;2.83;;;3.90;99.90;;;;;;5005941;28;20413;-79
2023/04/14 03:44:35;;;;;;;9.77;3.00;;;3.90;99.90;;;;;;5007292;28;20767;-77
2023/04/14 03:47:02;;;;;;;8.20;3.20;;;3.90;99.90;;;;;;5007747;28;20938;-76
2023/04/14 03:49:32;;;;;;;9.10;2.53;;;3.90;99.90;;;;;;5006958;28;20919;-76
2023/04/14 03:52:09;;;;;;;9.95;3.75;;;3.90;99.90;;;;;;5005490;28;20409;-77
2023/04/14 03:54:37;;;;;;;9.40;3.30;;;3.80;99.90;;;;;;5006918;28;20417;-75
2023/04/14 03:57:06;;;;;;;11.52;2.45;;;3.90;99.90;;;;;;5005616;28;20416;-76
2023/04/14 03:59:34;;;;;;;8.00;2.95;;;3.90;99.90;;;;;;5006715;28;20409;-76
2023/04/14 04:02:01;;;;;;;9.13;3.08;;;3.90;99.90;;;;;;5006666;28;20408;-76
2023/04/14 04:04:28;;;;;;;7.23;2.93;;;3.80;99.90;;;;;;5006797;28;20413;-76
2023/04/14 04:06:54;;;;;;;9.07;3.05;;;3.70;99.90;;;;;;5004592;28;20440;-74
2023/04/14 04:09:23;;;;;;;11.27;3.92;;;3.90;99.90;;;;;;5006056;28;20494;-76
2023/04/14 04:11:51;;;;;;;12.90;4.00;;;3.90;99.90;;;;;;5004756;28;20736;-76
2023/04/14 04:14:20;;;;;;;9.38;3.10;;;3.80;99.90;;;;;;5013661;28;21011;-76
2023/04/14 04:16:50;;;;;;;10.85;4.70;;;3.80;99.90;;;;;;5025462;28;20407;-76
2023/04/14 04:19:21;;;;;;;11.95;4.88;;;3.70;99.90;;;;;;5026083;28;20405;-76
2023/04/14 04:21:50;;;;;;;6.68;3.17;;;3.80;99.90;;;;;;5024343;28;20411;-76
2023/04/14 04:24:18;;;;;;;11.25;3.30;;;3.80;99.90;;;;;;5025551;28;20415;-75
2023/04/14 04:26:44;;;;;;;9.33;3.13;;;3.70;99.90;;;;;;5025394;28;20417;-75
2023/04/14 04:29:10;;;;;;;8.43;2.80;;;3.80;99.90;;;;;;4991502;28;20797;-74
2023/04/14 04:31:36;;;;;;;11.23;3.67;;;3.70;99.90;;;;;;5007584;28;20411;-76
2023/04/14 04:34:02;;;;;;;13.50;3.87;;;3.70;99.90;;;;;;5025957;28;20501;-75
2023/04/14 04:36:30;;;;;;;11.18;3.35;;;3.70;99.90;;;;;;5006796;28;20411;-75
2023/04/14 04:38:56;;;;;;;11.45;3.65;;;3.60;99.90;;;;;;5025273;28;20477;-75
2023/04/14 04:41:24;;;;;;;9.57;4.10;;;3.70;99.90;;;;;;5007502;28;20419;-75
2023/04/14 04:43:50;;;;;;;14.95;3.80;;;3.80;99.90;;;;;;5025428;28;20411;-75
2023/04/14 04:46:24;;;;;;;12.10;4.40;;;3.70;99.90;;;;;;5025444;28;20554;-74
2023/04/14 04:48:53;;;;;;;11.13;3.50;;;3.80;99.90;;;;;;5006914;28;20506;-75
2023/04/14 04:51:18;;;;;;;12.77;3.20;;;3.70;99.90;;;;;;5023916;28;20513;-76
2023/04/14 04:53:44;;;;;;;11.43;3.40;;;3.60;99.90;;;;;;5007101;28;20809;-75
2023/04/14 04:56:10;;;;;;;17.48;4.18;;;3.60;99.90;;;;;;5024959;28;20407;-75
2023/04/14 04:58:35;;;;;;;8.10;3.13;;;3.70;99.90;;;;;;5024803;28;20414;-77
2023/04/14 05:01:08;;;;;;;11.38;4.00;;;3.70;99.90;;;;;;5025150;28;20407;-75
2023/04/14 05:03:35;;;;;;;12.10;4.07;;;3.60;99.90;;;;;;5024919;28;20486;-75
2023/04/14 05:06:01;;;;;;;11.43;3.17;;;3.80;99.90;;;;;;5024236;28;20391;-75
2023/04/14 05:08:26;;;;;;;9.23;2.75;;;3.80;99.90;;;;;;5024797;28;20914;-76
2023/04/14 05:10:52;;;;;;;7.90;3.00;;;3.70;99.90;;;;;;5024316;28;20407;-76
2023/04/14 05:13:18;;;;;;;10.80;3.10;;;3.70;99.90;;;;;;5024762;28;20437;-75
2023/04/14 05:15:43;;;;;;;10.33;3.03;;;3.70;99.90;;;;;;5024020;28;20816;-75
2023/04/14 05:18:09;;;;;;;9.53;2.90;;;3.80;99.90;;;;;;5023728;28;20523;-75
2023/04/14 05:20:35;;;;;;;11.93;3.40;;;3.90;99.90;;;;;;5023803;28;20452;-79
2023/04/14 05:23:01;;;;;;;13.68;3.28;;;4.10;99.90;;;;;;5006722;28;20461;-75
2023/04/14 05:25:27;;;;;;;8.50;2.97;;;4.50;99.90;;;;;;4990433;28;20419;-76
2023/04/14 05:27:52;;;;;;;11.00;3.35;;;4.80;99.90;;;;;;5023630;28;20789;-76
2023/04/14 05:30:18;;;;;;;8.50;3.47;;;5.00;99.90;;;;;;5006710;28;20411;-75
2023/04/14 05:32:43;;;;;;;14.88;3.95;;;5.00;99.90;;;;;;5023812;28;20422;-76
2023/04/14 05:35:09;;;;;;;10.07;2.85;;;5.00;99.90;;;;;;5006108;28;20406;-76
2023/04/14 05:37:35;;;;;;;10.45;3.35;;;5.50;99.90;;;;;;5023092;28;20411;-75
2023/04/14 05:40:00;;;;;;;9.43;2.83;;;5.20;99.90;;;;;;5024298;28;20765;-76
2023/04/14 05:42:26;;;;;;;7.85;2.88;;;5.60;99.90;;;;;;5006278;28;20948;-76
2023/04/14 05:44:52;;;;;;;10.75;2.95;;;5.40;99.90;;;;;;5023948;28;20422;-75
2023/04/14 05:47:17;;;;;;;10.53;3.47;;;5.70;99.90;;;;;;5023806;28;20476;-75
2023/04/14 05:49:43;;;;;;;9.35;3.35;;;6.30;99.90;;;;;;5023823;28;20413;-76
2023/04/14 05:52:09;;;;;;;10.65;2.72;;;5.70;99.90;;;;;;4989002;28;20454;-76
2023/04/14 05:54:35;;;;;;;8.43;2.40;;;5.50;99.90;;;;;;5023952;28;20885;-75
2023/04/14 05:57:00;;;;;;;10.18;2.95;;;5.80;99.90;;;;;;5024461;28;20411;-75
2023/04/14 05:59:26;;;;;;;8.30;2.78;;;5.90;99.90;;;;;;5023922;28;20812;-75
2023/04/14 06:01:51;;;;;;;12.70;3.53;;;5.90;99.90;;;;;;5023661;28;20445;-75
2023/04/14 06:04:17;;;;;;;7.75;2.97;;;5.90;99.90;;;;;;5023656;28;20415;-75
2023/04/14 06:06:43;;;;;;;9.02;2.53;;;5.90;99.90;;;;;;5022433;28;20399;-76
2023/04/14 06:09:08;;;;;;;11.57;3.27;;;6.40;99.90;;;;;;5023824;28;20505;-76
2023/04/14 06:11:34;;;;;;;12.57;3.63;;;6.70;99.90;;;;;;5023766;28;20906;-75
2023/04/14 06:14:01;;;;;;;9.30;3.00;;;6.40;99.90;;;;;;5005675;28;20451;-76
2023/04/14 06:16:27;;;;;;;9.20;2.83;;;6.60;99.90;;;;;;5023935;28;20442;-76
2023/04/14 06:18:52;;;;;;;11.73;3.08;;;6.50;99.90;;;;;;5005267;28;20787;-75
2023/04/14 06:21:18;;;;;;;10.02;3.53;;;6.30;99.90;;;;;;5022535;28;20816;-76
2023/04/14 06:23:44;;;;;;;8.25;3.60;;;6.70;99.90;;;;;;5023427;28;20442;-75
2023/04/14 06:26:11;;;;;;;7.40;2.92;;;6.90;99.90;;;;;;5023549;28;20770;-76
2023/04/14 06:28:36;;;;;;;10.77;4.28;;;6.60;99.90;;;;;;5005258;28;20810;-74
2023/04/14 06:31:02;;;;;;;10.05;3.55;;;6.60;99.90;;;;;;5023648;28;20438;-75
2023/04/14 06:33:28;;;;;;;8.95;3.40;;;7.20;99.90;;;;;;5006098;28;20403;-75
2023/04/14 06:35:54;;;;;;;7.83;3.07;;;7.40;99.90;;;;;;5022009;28;20407;-75
2023/04/14 06:38:20;;;;;;;10.00;3.23;;;7.50;99.90;;;;;;5023266;28;21054;-75
2023/04/14 06:40:45;;;;;;;10.80;3.93;;;7.40;99.90;;;;;;5022908;28;20442;-75
2023/04/14 06:43:13;;;;;;;8.57;2.90;;;7.40;99.90;;;;;;5023244;28;20438;-76
2023/04/14 06:45:38;;;;;;;8.63;3.33;;;7.40;99.90;;;;;;5022974;28;20437;-76
2023/04/14 06:48:04;;;;;;;8.07;2.90;;;7.40;99.90;;;;;;5023648;28;20514;-76
2023/04/14 06:50:30;;;;;;;10.48;3.47;;;7.20;99.90;;;;;;5021969;28;20762;-74
2023/04/14 06:52:56;;;;;;;6.53;2.50;;;7.30;99.90;;;;;;5022939;28;20434;-75
2023/04/14 06:55:21;;;;;;;6.55;3.00;;;7.80;99.90;;;;;;5023204;28;20403;-75
2023/04/14 06:57:47;;;;;;;6.95;2.55;;;8.80;99.90;;;;;;5022838;28;20566;-75
2023/04/14 07:00:13;;;;;;;8.85;3.35;;;9.20;99.90;;;;;;5023174;28;20399;-75
2023/04/14 07:02:38;;;;;;;14.30;3.88;;;9.80;99.90;;;;;;5022835;28;20964;-76
2023/04/14 07:05:04;;;;;;;9.88;3.33;;;10.10;99.90;;;;;;5023134;28;20403;-75
2023/04/14 07:07:34;;;;;;;10.35;3.88;;;10.80;99.90;;;;;;5021823;28;20419;-75
2023/04/14 07:10:00;;;;;;;10.60;3.80;;;11.50;99.90;;;;;;5022448;28;21139;-75
2023/04/14 07:12:25;;;;;;;6.80;3.00;;;10.70;99.90;;;;;;5022571;28;20437;-75
2023/04/14 07:14:51;;;;;;;7.63;3.60;;;9.60;99.90;;;;;;5022270;28;20418;-75
2023/04/14 07:17:18;;;;;;;10.38;4.03;;;9.00;99.90;;;;;;5022828;28;20524;-75
2023/04/14 07:19:45;;;;;;;6.80;2.88;;;9.00;99.90;;;;;;5022318;28;20771;-76
2023/04/14 07:22:10;;;;;;;10.25;3.70;;;9.10;99.90;;;;;;5004416;28;20422;-75
2023/04/14 07:24:37;;;;;;;13.27;4.10;;;8.50;99.90;;;;;;5005255;28;20778;-77
2023/04/14 07:27:05;;;;;;;9.70;3.92;;;8.70;99.90;;;;;;5022971;28;20395;-75
2023/04/14 07:29:32;;;;;;;9.37;4.20;;;9.00;99.90;;;;;;4989502;28;20415;-76
2023/04/14 07:31:58;;;;;;;9.30;3.80;;;9.10;99.90;;;;;;5022507;28;20494;-75
2023/04/14 07:34:23;;;;;;;13.40;5.20;;;9.20;99.90;;;;;;5022760;28;20537;-74
2023/04/14 07:36:49;;;;;;;8.50;3.57;;;9.10;99.90;;;;;;5022114;28;20484;-75
2023/04/14 07:39:15;;;;;;;16.63;7.97;;;9.10;99.90;;;;;;5005307;28;20497;-75
2023/04/14 07:41:41;;;;;;;10.18;5.22;;;9.10;99.90;;;;;;5024529;28;20973;-75
2023/04/14 07:44:07;;;;;;;19.90;5.18;;;9.40;99.90;;;;;;5026187;28;20620;-76
2023/04/14 07:46:32;;;;;;;12.37;4.63;;;9.60;99.90;;;;;;5026291;28;20418;-76
2023/04/14 07:48:58;;;;;;;10.90;5.20;;;9.70;99.90;;;;;;5008197;28;20469;-76
2023/04/14 07:51:24;;;;;;;11.10;4.53;;;9.60;99.90;;;;;;5025026;28;20406;-75
2023/04/14 07:53:51;;;;;;;9.10;2.90;;;9.70;99.90;;;;;;5026262;28;20398;-76
2023/04/14 07:56:18;;;;;;;13.90;7.20;;;10.00;99.90;;;;;;5025912;28;20730;-76
2023/04/14 07:58:43;;;;;;;10.10;3.73;;;10.00;99.90;;;;;;5025590;28;20929;-75
2023/04/14 08:01:09;;;;;;;16.17;7.93;;;10.00;99.90;;;;;;5025875;28;20507;-75
2023/04/14 08:03:36;;;;;;;18.15;6.78;;;10.20;99.90;;;;;;5026196;28;20407;-75
2023/04/14 08:06:06;;;;;;;8.82;3.47;;;10.20;99.90;;;;;;5007945;28;20662;-75
2023/04/14 08:08:32;;;;;;;14.13;4.57;;;10.40;99.90;;;;;;5026203;28;20684;-75
2023/04/14 08:10:58;;;;;;;10.32;2.88;;;10.40;99.90;;;;;;5025726;28;20808;-75
2023/04/14 08:13:24;;;;;;;8.50;2.80;;;10.40;99.90;;;;;;5025830;28;20412;-75
2023/04/14 08:15:49;;;;;;;9.60;3.22;;;10.50;99.90;;;;;;5024958;28;20407;-75
2023/04/14 08:18:15;;;;;;;11.33;2.93;;;10.60;99.90;;;;;;5026165;28;20970;-75
2023/04/14 08:20:41;;;;;;;7.85;2.97;;;10.60;99.90;;;;;;5006880;28;20486;-76
2023/04/14 08:23:06;;;;;;;14.85;4.10;;;10.60;99.90;;;;;;5025421;28;20413;-76
2023/04/14 08:25:32;;;;;;;12.95;3.08;;;10.70;99.90;;;;;;5025789;28;20450;-76
2023/04/14 08:27:58;;;;;;;10.43;4.63;;;10.90;99.90;;;;;;5024971;28;20434;-75
2023/04/14 08:30:23;;;;;;;8.43;2.70;;;10.70;99.90;;;;;;5007801;28;20421;-75
2023/04/14 08:32:49;;;;;;;9.57;4.23;;;11.00;99.90;;;;;;5025625;28;20475;-76
2023/04/14 08:35:15;;;;;;;10.77;2.78;;;11.10;99.90;;;;;;5024338;28;20443;-75
2023/04/14 08:37:40;;;;;;;13.00;5.20;;;11.20;99.90;;;;;;5025471;28;20446;-76
2023/04/14 08:40:09;;;;;;;9.43;3.83;;;11.40;99.90;;;;;;5025362;28;20502;-77
2023/04/14 08:42:34;;;;;;;11.88;2.25;;;11.50;99.90;;;;;;5007810;28;20711;-76
2023/04/14 08:45:00;;;;;;;15.45;7.63;;;11.60;99.90;;;;;;5025198;28;20415;-75
2023/04/14 08:47:30;;;;;;;36.58;19.48;;;11.30;99.90;;;;;;5025579;28;20426;-76
2023/04/14 08:50:00;;;;;;;42.72;21.80;;;11.40;99.90;;;;;;5025348;28;20486;-76
2023/04/14 08:52:27;;;;;;;16.03;5.57;;;11.70;99.90;;;;;;5025546;28;20815;-75
2023/04/14 08:54:55;;;;;;;79.10;38.67;;;11.50;99.90;;;;;;5025270;28;20402;-75
2023/04/14 08:57:23;;;;;;;110.38;58.42;;;11.70;99.90;;;;;;5025390;28;20410;-76
2023/04/14 08:59:50;;;;;;;35.85;19.98;;;11.70;99.90;;;;;;5025381;28;20402;-76
2023/04/14 09:02:17;;;;;;;26.10;15.75;;;11.70;99.90;;;;;;5026383;28;20411;-75
2023/04/14 09:04:44;;;;;;;16.95;8.10;;;11.90;99.90;;;;;;5025679;28;20395;-75
2023/04/14 09:07:11;;;;;;;19.17;11.77;;;11.90;99.90;;;;;;5024977;28;20592;-75
2023/04/14 09:09:37;;;;;;;11.70;5.43;;;11.90;99.90;;;;;;5026037;28;20592;-76
2023/04/14 09:12:03;;;;;;;15.20;8.07;;;11.90;99.90;;;;;;5009265;28;20465;-75
2023/04/14 09:14:29;;;;;;;11.65;4.68;;;12.00;99.90;;;;;;5008683;28;20783;-76
2023/04/14 09:16:56;;;;;;;7.00;2.28;;;12.10;99.90;;;;;;5027761;28;20492;-75
2023/04/14 09:19:23;;;;;;;8.05;1.90;;;12.20;99.90;;;;;;5028512;28;20411;-75
2023/04/14 09:21:49;;;;;;;8.77;2.67;;;12.40;99.90;;;;;;5010035;28;20953;-75
2023/04/14 09:24:22;;;;;;;13.75;2.83;;;11.80;99.90;;;;;;5028339;28;20485;-75
2023/04/14 09:26:49;;;;;;;7.28;1.92;;;12.30;99.90;;;;;;5027460;28;20766;-75
2023/04/14 09:29:15;;;;;;;7.20;2.00;;;12.50;99.90;;;;;;5025449;28;21285;-75
2023/04/14 09:31:41;;;;;;;7.57;1.80;;;12.50;99.90;;;;;;5025626;28;20403;-75
2023/04/14 09:34:16;;;;;;;9.60;2.77;;;12.50;99.90;;;;;;5032429;28;20403;-76
2023/04/14 09:36:52;;;;;;;7.17;1.70;;;12.10;99.90;;;;;;5033287;28;20489;-76
2023/04/14 09:39:17;;;;;;;9.18;2.58;;;11.90;99.90;;;;;;5027853;28;20413;-75
2023/04/14 09:41:46;;;;;;;7.60;2.50;;;12.00;99.90;;;;;;5025889;28;20502;-75
2023/04/14 09:44:12;;;;;;;8.85;2.67;;;12.60;99.90;;;;;;5027656;28;20478;-76
2023/04/14 09:46:58;;;;;;;6.78;1.88;;;12.50;99.90;;;;;;4994280;28;20511;-76
2023/04/14 09:49:24;;;;;;;8.32;2.28;;;12.70;99.90;;;;;;5029271;28;20434;-76
2023/04/14 09:51:53;;;;;;;6.37;2.23;;;12.90;99.90;;;;;;5023596;28;20399;-76
2023/04/14 09:54:24;;;;;;;8.88;1.85;;;13.20;99.90;;;;;;5024093;28;20418;-75
2023/04/14 09:56:54;;;;;;;5.30;2.35;;;13.30;99.90;;;;;;5024209;28;20418;-77
2023/04/14 09:59:33;;;;;;;4.95;1.60;;;13.50;99.90;;;;;;4990507;28;20423;-77
2023/04/14 10:02:03;;;;;;;7.93;2.08;;;13.20;99.90;;;;;;5024060;28;20419;-77
2023/04/14 10:04:28;;;;;;;4.30;1.65;;;13.50;99.90;;;;;;5024607;28;20414;-76
2023/04/14 10:06:56;;;;;;;7.43;2.10;;;13.50;99.90;;;;;;5022759;28;20450;-76
2023/04/14 10:09:22;;;;;;;7.90;2.25;;;13.30;99.90;;;;;;5024228;28;20786;-77
2023/04/14 10:12:05;;;;;;;7.45;2.15;;;12.90;99.90;;;;;;5023701;28;20449;-75
2023/04/14 10:14:32;;;;;;;11.25;2.83;;;12.90;99.90;;;;;;5024305;28;20423;-75
2023/04/14 10:16:59;;;;;;;10.07;3.27;;;12.90;99.90;;;;;;5023705;28;20403;-75
2023/04/14 10:19:26;;;;;;;8.82;2.63;;;13.00;99.90;;;;;;5023995;28;20977;-76
2023/04/14 10:21:53;;;;;;;5.10;1.60;;;12.90;99.90;;;;;;4988521;28;20498;-76
2023/04/14 10:24:22;;;;;;;6.38;2.00;;;13.40;99.90;;;;;;5023584;28;20418;-76
2023/04/14 10:26:48;;;;;;;5.85;1.70;;;13.20;99.90;;;;;;5005732;28;20469;-76
2023/04/14 10:29:15;;;;;;;8.95;1.98;;;13.00;99.90;;;;;;5023684;28;20435;-75
2023/04/14 10:31:45;;;;;;;8.68;2.80;;;13.10;99.90;;;;;;5023609;28;20414;-76
2023/04/14 10:34:13;;;;;;;7.70;2.47;;;12.70;99.90;;;;;;5005569;28;20466;-75
2023/04/14 10:36:39;;;;;;;10.25;3.53;;;12.50;99.90;;;;;;5022569;28;20410;-76
2023/04/14 10:39:06;;;;;;;8.75;2.55;;;13.40;99.90;;;;;;5024250;28;20723;-76
2023/04/14 10:41:46;;;;;;;10.27;2.78;;;13.60;99.90;;;;;;5023156;28;20465;-76
2023/04/14 10:44:28;;;;;;;6.93;2.58;;;13.70;99.90;;;;;;5005740;28;20415;-76
2023/04/14 10:46:55;;;;;;;10.25;2.58;;;14.30;99.90;;;;;;5023384;28;20415;-76
2023/04/14 10:49:38;;;;;;;7.40;2.40;;;13.90;99.90;;;;;;5023498;28;20435;-76
2023/04/14 10:52:13;;;;;;;8.50;2.88;;;13.80;99.90;;;;;;5023555;28;20514;-76
2023/04/14 10:55:01;;;;;;;8.88;3.30;;;14.40;99.90;;;;;;5004809;28;20514;-76
2023/04/14 10:57:28;;;;;;;12.48;2.45;;;14.80;99.90;;;;;;5023374;28;20410;-76
2023/04/14 10:59:58;;;;;;;8.82;3.10;;;14.50;99.90;;;;;;5005039;28;20438;-75
2023/04/14 11:02:29;;;;;;;11.90;3.50;;;14.00;99.90;;;;;;5023336;28;20403;-76
2023/04/14 11:05:07;;;;;;;5.35;1.92;;;13.70;99.90;;;;;;5022423;28;20837;-76
2023/04/14 11:07:53;;;;;;;6.75;2.28;;;13.60;99.90;;;;;;5023554;28;20423;-75
2023/04/14 11:10:21;;;;;;;9.97;3.30;;;13.50;99.90;;;;;;5023066;28;20411;-76
2023/04/14 11:12:53;;;;;;;9.65;3.05;;;13.50;99.90;;;;;;5022763;28;20484;-75
2023/04/14 11:15:19;;;;;;;5.82;1.95;;;13.90;99.90;;;;;;5022900;28;20414;-75
2023/04/14 11:17:45;;;;;;;7.85;1.98;;;14.10;99.90;;;;;;5009037;28;20411;-76
2023/04/14 11:20:23;;;;;;;4.20;1.70;;;14.40;99.90;;;;;;5025735;28;20432;-76
2023/04/14 11:22:51;;;;;;;11.27;2.50;;;14.40;99.90;;;;;;5026166;28;20794;-76
2023/04/14 11:25:19;;;;;;;8.25;2.63;;;14.20;99.90;;;;;;5027078;28;20415;-76
2023/04/14 11:27:47;;;;;;;7.18;2.30;;;14.50;99.90;;;;;;5026446;28;20552;-76
2023/04/14 11:30:20;;;;;;;8.23;2.05;;;13.90;99.90;;;;;;5026583;28;20770;-76
2023/04/14 11:32:50;;;;;;;6.43;2.20;;;13.90;99.90;;;;;;5026431;28;20399;-76
2023/04/14 11:35:21;;;;;;;6.00;2.60;;;13.90;99.90;;;;;;5025611;28;20426;-76
2023/04/14 11:37:47;;;;;;;7.27;2.57;;;13.90;99.90;;;;;;5025922;28;20414;-76
2023/04/14 11:40:14;;;;;;;5.60;2.10;;;14.10;99.90;;;;;;4992265;28;20419;-76
2023/04/14 11:42:51;;;;;;;7.05;2.10;;;13.80;99.90;;;;;;5026554;28;20470;-75
2023/04/14 11:45:17;;;;;;;10.97;2.43;;;13.80;99.90;;;;;;5026888;28;20490;-76
2023/04/14 11:47:58;;;;;;;7.88;2.05;;;13.90;99.90;;;;;;5025901;28;20426;-76
2023/04/14 11:50:26;;;;;;;5.60;2.03;;;14.10;99.90;;;;;;5007941;28;20399;-76
2023/04/14 11:52:54;;;;;;;5.05;1.80;;;14.10;99.90;;;;;;5026135;28;20414;-77
2023/04/14 11:55:22;;;;;;;4.97;2.03;;;14.10;99.90;;;;;;5026489;28;20498;-76
2023/04/14 11:57:48;;;;;;;6.88;1.90;;;14.00;99.90;;;;;;5025859;28;20782;-77
2023/04/14 12:00:14;;;;;;;6.80;1.60;;;14.00;99.90;;;;;;5026394;28;20805;-76
2023/04/14 12:02:44;;;;;;;4.90;1.50;;;14.20;99.90;;;;;;5025677;28;20718;-76
2023/04/14 12:05:10;;;;;;;8.05;2.10;;;14.20;99.90;;;;;;5007806;28;20458;-75
2023/04/14 12:07:37;;;;;;;7.38;2.63;;;14.40;99.90;;;;;;5026245;28;20459;-77
2023/04/14 12:10:05;;;;;;;5.63;1.35;;;14.50;99.90;;;;;;5026249;28;20423;-76
2023/04/14 12:12:32;;;;;;;6.90;1.57;;;14.30;99.90;;;;;;5008577;28;20543;-75
2023/04/14 12:14:58;;;;;;;6.40;2.05;;;14.60;99.90;;;;;;5025352;28;20419;-75
2023/04/14 12:17:24;;;;;;;6.13;1.90;;;14.60;99.90;;;;;;5025894;28;20755;-75
2023/04/14 12:19:50;;;;;;;8.40;1.90;;;14.80;99.90;;;;;;5024576;28;21141;-76
2023/04/14 12:22:28;;;;;;;7.50;2.50;;;14.80;99.90;;;;;;5026242;28;20408;-76
2023/04/14 12:24:55;;;;;;;8.32;2.42;;;15.20;99.90;;;;;;5008057;28;20418;-75
2023/04/14 12:27:25;;;;;;;9.88;4.97;;;15.10;99.90;;;;;;5025186;28;20440;-75
2023/04/14 12:29:51;;;;;;;7.50;2.20;;;15.50;99.90;;;;;;5007527;28;20426;-76
2023/04/14 12:32:17;;;;;;;5.15;1.73;;;15.20;99.90;;;;;;5025396;28;20901;-76
2023/04/14 12:35:00;;;;;;;7.85;1.90;;;14.80;99.90;;;;;;5024560;28;20498;-76
2023/04/14 12:37:27;;;;;;;5.70;1.53;;;15.10;98.90;;;;;;5025620;28;21175;-76
2023/04/14 12:39:59;;;;;;;7.88;2.35;;;15.20;99.90;;;;;;5025591;28;20758;-76
2023/04/14 12:42:41;;;;;;;5.07;1.40;;;15.50;99.80;;;;;;5025407;28;20928;-76
2023/04/14 12:45:08;;;;;;;5.25;1.92;;;15.50;99.90;;;;;;5025696;28;20411;-76
2023/04/14 12:47:34;;;;;;;5.97;1.83;;;15.30;99.90;;;;;;5025362;28;20418;-76
2023/04/14 12:50:20;;;;;;;7.82;2.20;;;15.30;99.90;;;;;;5006290;28;20411;-76
2023/04/14 12:52:46;;;;;;;4.40;1.40;;;15.50;99.00;;;;;;5024614;28;21074;-76